createdAt,value
2022-10-01T00:00:24.986Z,1000.9
2022-10-01T00:03:25.006Z,1000.9
2022-10-01T00:06:25.032Z,1000.8
2022-10-01T00:09:25.003Z,1000.8
2022-10-01T00:12:25.013Z,1000.7
2022-10-01T00:15:25.010Z,1000.9
2022-10-01T00:18:25.037Z,1000.8
2022-10-01T00:21:25.019Z,1000.8
2022-10-01T00:24:25.060Z,1000.8
2022-10-01T00:27:25.031Z,1000.7
2022-10-01T00:30:25.039Z,1000.7
2022-10-01T00:33:25.056Z,1000.6
2022-10-01T00:36:25.050Z,1000.5
2022-10-01T00:39:25.051Z,1000.5
2022-10-01T00:42:25.085Z,1000.6
2022-10-01T00:45:25.060Z,1000.5
2022-10-01T00:48:25.087Z,1000.5
2022-10-01T00:51:25.071Z,1000.5
2022-10-01T00:54:25.079Z,1000.5
2022-10-01T00:57:25.088Z,1000.4
2022-10-01T01:00:25.116Z,1000.4
2022-10-01T01:03:25.111Z,1000.3
2022-10-01T01:06:25.108Z,1000.3
2022-10-01T01:09:25.111Z,1000.3
2022-10-01T01:12:25.119Z,1000.3
2022-10-01T01:15:25.122Z,1000.2
2022-10-01T01:18:25.158Z,1000.2
2022-10-01T01:21:25.135Z,1000.1
2022-10-01T01:24:25.136Z,1000.2
2022-10-01T01:27:25.145Z,1000
2022-10-01T01:30:25.142Z,999.9
2022-10-01T01:33:25.159Z,999.9
2022-10-01T01:36:25.183Z,999.8
2022-10-01T01:39:25.158Z,999.8
2022-10-01T01:42:25.165Z,999.7
2022-10-01T01:45:25.173Z,999.6
2022-10-01T01:48:25.199Z,999.7
2022-10-01T01:51:25.187Z,999.6
2022-10-01T01:54:25.222Z,999.6
2022-10-01T01:57:25.202Z,999.6
2022-10-01T02:00:25.209Z,999.5
2022-10-01T02:03:25.222Z,999.5
2022-10-01T02:06:25.221Z,999.5
2022-10-01T02:09:25.225Z,999.5
2022-10-01T02:12:25.260Z,999.5
2022-10-01T02:15:25.389Z,999.5
2022-10-01T02:18:25.255Z,999.5
2022-10-01T02:21:25.247Z,999.5
2022-10-01T02:24:25.256Z,999.4
2022-10-01T02:27:25.263Z,999.4
2022-10-01T02:30:25.299Z,999.3
2022-10-01T02:33:25.271Z,999.3
2022-10-01T02:36:25.286Z,999.3
2022-10-01T02:39:25.288Z,999.2
2022-10-01T02:42:25.296Z,999.1
2022-10-01T02:45:25.296Z,999.1
2022-10-01T02:48:25.332Z,999.2
2022-10-01T02:51:25.310Z,999.1
2022-10-01T02:54:25.322Z,999
2022-10-01T02:57:25.324Z,998.9
2022-10-01T03:00:25.335Z,998.9
2022-10-01T03:03:25.340Z,998.9
2022-10-01T03:06:25.376Z,998.9
2022-10-01T03:09:25.352Z,998.9
2022-10-01T03:12:25.374Z,998.8
2022-10-01T03:15:25.373Z,998.7
2022-10-01T03:18:25.380Z,998.7
2022-10-01T03:21:25.392Z,998.6
2022-10-01T03:24:25.432Z,998.6
2022-10-01T03:27:25.406Z,998.5
2022-10-01T03:30:25.410Z,998.4
2022-10-01T03:33:25.416Z,998.4
2022-10-01T03:36:25.425Z,998.4
2022-10-01T03:39:25.434Z,998.3
2022-10-01T03:42:25.459Z,998.3
2022-10-01T03:45:25.506Z,998.2
2022-10-01T03:48:25.446Z,998.2
2022-10-01T03:51:25.459Z,998.2
2022-10-01T03:54:25.476Z,998.2
2022-10-01T03:57:25.479Z,998.2
2022-10-01T04:00:25.516Z,998.2
2022-10-01T04:03:25.504Z,998.2
2022-10-01T04:06:25.510Z,998.1
2022-10-01T04:09:25.516Z,998.1
2022-10-01T04:12:25.523Z,998.1
2022-10-01T04:15:25.526Z,998.1
2022-10-01T04:18:25.559Z,998
2022-10-01T04:21:25.541Z,998
2022-10-01T04:24:25.561Z,998
2022-10-01T04:27:25.566Z,998
2022-10-01T04:30:25.577Z,997.9
2022-10-01T04:33:25.587Z,997.9
2022-10-01T04:36:25.633Z,997.9
2022-10-01T04:39:25.604Z,997.9
2022-10-01T04:42:25.616Z,997.9
2022-10-01T04:45:25.621Z,997.7
2022-10-01T04:48:25.633Z,997.6
2022-10-01T04:51:25.643Z,997.5
2022-10-01T04:54:25.679Z,997.7
2022-10-01T04:57:25.665Z,997.7
2022-10-01T05:00:25.675Z,997.6
2022-10-01T05:03:25.682Z,997.7
2022-10-01T05:06:25.699Z,997.6
2022-10-01T05:09:25.713Z,997.6
2022-10-01T05:12:25.742Z,997.5
2022-10-01T05:15:25.720Z,997.5
2022-10-01T05:18:25.736Z,997.5
2022-10-01T05:21:25.746Z,997.4
2022-10-01T05:24:25.754Z,997.4
2022-10-01T05:27:25.767Z,997.4
2022-10-01T05:30:25.798Z,997.3
2022-10-01T05:33:25.787Z,997.3
2022-10-01T05:36:25.793Z,997.2
2022-10-01T05:39:25.807Z,997.3
2022-10-01T05:42:25.817Z,997.2
2022-10-01T05:45:25.919Z,997.2
2022-10-01T05:48:25.859Z,997.1
2022-10-01T05:51:25.848Z,997.1
2022-10-01T05:54:25.857Z,997
2022-10-01T05:57:25.857Z,997
2022-10-01T06:00:25.864Z,997
2022-10-01T06:03:25.878Z,996.9
2022-10-01T06:06:25.915Z,996.9
2022-10-01T06:09:25.903Z,996.9
2022-10-01T06:12:25.914Z,996.7
2022-10-01T06:15:25.922Z,996.7
2022-10-01T06:18:25.931Z,996.7
2022-10-01T06:21:25.950Z,996.7
2022-10-01T06:24:25.977Z,996.6
2022-10-01T06:27:25.960Z,996.5
2022-10-01T06:30:25.974Z,996.5
2022-10-01T06:33:25.985Z,996.4
2022-10-01T06:36:25.992Z,996.4
2022-10-01T06:39:26.000Z,996.4
2022-10-01T06:42:26.027Z,996.3
2022-10-01T06:45:26.060Z,996.2
2022-10-01T06:48:26.025Z,996.1
2022-10-01T06:51:26.031Z,996
2022-10-01T06:54:26.040Z,995.9
2022-10-01T06:57:26.055Z,995.8
2022-10-01T07:00:26.089Z,995.8
2022-10-01T07:03:26.075Z,995.8
2022-10-01T07:06:26.088Z,995.7
2022-10-01T07:09:26.094Z,995.7
2022-10-01T07:12:26.097Z,995.7
2022-10-01T07:15:26.106Z,995.6
2022-10-01T07:18:26.139Z,995.7
2022-10-01T07:21:26.127Z,995.6
2022-10-01T07:24:26.128Z,995.6
2022-10-01T07:27:26.141Z,995.6
2022-10-01T07:30:26.154Z,995.5
2022-10-01T07:33:26.166Z,995.5
2022-10-01T07:36:26.192Z,995.4
2022-10-01T07:39:26.178Z,995.3
2022-10-01T07:42:26.189Z,995.5
2022-10-01T07:45:26.191Z,995.4
2022-10-01T07:48:26.200Z,995.3
2022-10-01T07:51:26.204Z,995.3
2022-10-01T07:54:26.246Z,995.3
2022-10-01T07:57:26.220Z,995.3
2022-10-01T08:00:26.234Z,995.2
2022-10-01T08:03:26.239Z,995.3
2022-10-01T08:06:26.244Z,995.3
2022-10-01T08:09:26.255Z,995.2
2022-10-01T08:12:26.289Z,995.2
2022-10-01T08:15:26.272Z,995.2
2022-10-01T08:18:26.263Z,995.3
2022-10-01T08:21:26.279Z,995.3
2022-10-01T08:24:26.283Z,995.3
2022-10-01T08:27:26.287Z,995.4
2022-10-01T08:30:26.317Z,995.2
2022-10-01T08:33:26.293Z,995.2
2022-10-01T08:36:26.310Z,995.3
2022-10-01T08:39:26.311Z,995.2
2022-10-01T08:42:26.315Z,995.2
2022-10-01T08:45:26.511Z,995.2
2022-10-01T08:48:26.349Z,995.2
2022-10-01T08:51:26.323Z,995.1
2022-10-01T08:54:26.332Z,995.1
2022-10-01T08:57:26.335Z,995.1
2022-10-01T09:00:26.343Z,995
2022-10-01T09:03:26.343Z,995.1
2022-10-01T09:06:26.360Z,995.1
2022-10-01T09:09:26.347Z,995
2022-10-01T09:12:26.352Z,995.1
2022-10-01T09:15:26.353Z,995
2022-10-01T09:18:26.362Z,995
2022-10-01T09:21:26.349Z,994.9
2022-10-01T09:24:26.384Z,994.9
2022-10-01T09:27:26.367Z,994.9
2022-10-01T09:30:26.372Z,995
2022-10-01T09:33:26.364Z,994.9
2022-10-01T09:36:26.361Z,995
2022-10-01T09:39:26.363Z,995
2022-10-01T09:42:26.393Z,994.9
2022-10-01T09:45:26.400Z,994.9
2022-10-01T09:48:26.382Z,994.8
2022-10-01T09:51:26.368Z,994.8
2022-10-01T09:54:26.376Z,994.9
2022-10-01T09:57:26.388Z,994.8
2022-10-01T10:00:26.404Z,994.9
2022-10-01T10:03:26.484Z,994.7
2022-10-01T10:06:26.376Z,994.8
2022-10-01T10:09:26.392Z,994.8
2022-10-01T10:12:26.399Z,994.8
2022-10-01T10:15:26.450Z,994.7
2022-10-01T10:18:26.450Z,994.8
2022-10-01T10:21:26.442Z,994.9
2022-10-01T10:24:26.495Z,994.9
2022-10-01T10:27:26.466Z,994.9
2022-10-01T10:30:26.484Z,994.8
2022-10-01T10:33:26.500Z,994.8
2022-10-01T10:36:26.547Z,994.9
2022-10-01T10:39:26.543Z,995
2022-10-01T10:42:26.548Z,995
2022-10-01T10:45:26.576Z,995
2022-10-01T10:48:26.599Z,995
2022-10-01T10:51:26.608Z,995.1
2022-10-01T10:54:26.648Z,995.1
2022-10-01T10:57:26.642Z,994.9
2022-10-01T11:00:26.666Z,995
2022-10-01T11:03:26.663Z,995
2022-10-01T11:06:26.684Z,995
2022-10-01T11:09:26.713Z,995.1
2022-10-01T11:12:26.746Z,994.8
2022-10-01T11:15:26.737Z,995
2022-10-01T11:18:26.763Z,995
2022-10-01T11:21:26.768Z,995
2022-10-01T11:24:26.843Z,994.9
2022-10-01T11:27:26.812Z,995
2022-10-01T11:30:26.854Z,995.1
2022-10-01T11:33:26.848Z,995.2
2022-10-01T11:36:26.867Z,995.2
2022-10-01T11:39:26.885Z,995.2
2022-10-01T11:42:26.903Z,995.4
2022-10-01T11:45:26.917Z,995.3
2022-10-01T11:48:26.969Z,995.2
2022-10-01T11:51:26.951Z,995.3
2022-10-01T11:54:26.972Z,995.2
2022-10-01T11:57:26.992Z,995.3
2022-10-01T12:00:27.516Z,995.2
2022-10-01T12:03:27.021Z,995.2
2022-10-01T12:06:30.554Z,995.2
2022-10-01T12:09:27.059Z,995.3
2022-10-01T12:12:27.072Z,995.3
2022-10-01T12:15:27.106Z,995.3
2022-10-01T12:18:27.114Z,995.3
2022-10-01T12:21:27.142Z,995.3
2022-10-01T12:24:27.190Z,995.3
2022-10-01T12:27:27.183Z,995.4
2022-10-01T12:30:27.192Z,995.3
2022-10-01T12:33:27.227Z,995.2
2022-10-01T12:36:27.244Z,995.3
2022-10-01T12:39:27.264Z,995.4
2022-10-01T12:42:27.321Z,995.4
2022-10-01T12:45:27.476Z,995.4
2022-10-01T12:48:27.330Z,995.4
2022-10-01T12:51:27.345Z,995.5
2022-10-01T12:54:27.368Z,995.4
2022-10-01T12:57:27.413Z,995.5
2022-10-01T13:00:27.433Z,995.4
2022-10-01T13:03:27.430Z,995.4
2022-10-01T13:06:27.459Z,995.3
2022-10-01T13:09:27.480Z,995.3
2022-10-01T13:12:27.500Z,995.3
2022-10-01T13:15:27.522Z,995.4
2022-10-01T13:18:27.568Z,995.5
2022-10-01T13:21:27.572Z,995.6
2022-10-01T13:24:27.585Z,995.6
2022-10-01T13:27:27.605Z,995.7
2022-10-01T13:30:27.616Z,995.7
2022-10-01T13:33:27.647Z,995.6
2022-10-01T13:36:27.691Z,995.5
2022-10-01T13:39:30.077Z,995.6
2022-10-01T13:42:27.696Z,995.6
2022-10-01T13:45:27.710Z,995.7
2022-10-01T13:48:27.728Z,995.7
2022-10-01T13:51:27.753Z,995.5
2022-10-01T13:54:27.803Z,995.7
2022-10-01T13:57:27.803Z,995.8
2022-10-01T14:00:27.815Z,995.7
2022-10-01T14:03:27.842Z,995.8
2022-10-01T14:06:27.856Z,995.7
2022-10-01T14:09:27.877Z,995.8
2022-10-01T14:12:27.921Z,995.7
2022-10-01T14:15:27.968Z,995.7
2022-10-01T14:18:27.928Z,995.7
2022-10-01T14:21:27.941Z,995.7
2022-10-01T14:24:27.955Z,995.6
2022-10-01T14:27:27.971Z,995.6
2022-10-01T14:30:28.007Z,995.6
2022-10-01T14:33:27.993Z,995.7
2022-10-01T14:36:28.007Z,995.7
2022-10-01T14:39:28.027Z,995.7
2022-10-01T14:42:28.033Z,995.6
2022-10-01T14:45:28.057Z,995.7
2022-10-01T14:48:28.105Z,995.7
2022-10-01T14:51:28.098Z,995.7
2022-10-01T14:54:28.117Z,995.6
2022-10-01T14:57:28.147Z,995.6
2022-10-01T15:00:28.162Z,995.4
2022-10-01T15:03:28.229Z,995.5
2022-10-01T15:06:28.233Z,995.7
2022-10-01T15:09:28.217Z,995.8
2022-10-01T15:12:28.234Z,995.7
2022-10-01T15:15:28.252Z,995.8
2022-10-01T15:18:28.276Z,996.1
2022-10-01T15:21:28.300Z,996.2
2022-10-01T15:24:28.337Z,996.3
2022-10-01T15:27:28.337Z,996.3
2022-10-01T15:30:28.346Z,996.5
2022-10-01T15:33:28.371Z,996.6
2022-10-01T15:36:28.390Z,996.7
2022-10-01T15:39:28.414Z,996.8
2022-10-01T15:42:28.462Z,996.8
2022-10-01T15:45:28.460Z,997
2022-10-01T15:48:28.478Z,997.1
2022-10-01T15:51:28.510Z,997.1
2022-10-01T15:54:28.523Z,997.1
2022-10-01T15:57:28.547Z,997.2
2022-10-01T16:00:28.648Z,997.3
2022-10-01T16:03:28.580Z,997.3
2022-10-01T16:06:28.600Z,997.3
2022-10-01T16:09:28.621Z,997.4
2022-10-01T16:12:28.639Z,997.4
2022-10-01T16:15:28.664Z,997.5
2022-10-01T16:18:28.699Z,997.5
2022-10-01T16:21:28.702Z,997.6
2022-10-01T16:24:28.708Z,997.7
2022-10-01T16:27:28.727Z,997.8
2022-10-01T16:30:28.751Z,997.8
2022-10-01T16:33:28.769Z,997.7
2022-10-01T16:36:28.820Z,997.8
2022-10-01T16:39:28.818Z,997.9
2022-10-01T16:42:28.844Z,998.1
2022-10-01T16:45:28.887Z,998.2
2022-10-01T16:48:28.890Z,998.2
2022-10-01T16:51:28.903Z,998.3
2022-10-01T16:54:28.937Z,998.4
2022-10-01T16:57:28.946Z,998.6
2022-10-01T17:00:29.015Z,998.7
2022-10-01T17:03:28.979Z,998.7
2022-10-01T17:06:28.994Z,998.7
2022-10-01T17:09:29.011Z,998.7
2022-10-01T17:12:29.049Z,998.8
2022-10-01T17:15:29.036Z,998.8
2022-10-01T17:18:29.062Z,998.9
2022-10-01T17:21:29.082Z,998.9
2022-10-01T17:24:29.116Z,999
2022-10-01T17:27:29.134Z,999
2022-10-01T17:30:29.216Z,999
2022-10-01T17:33:29.182Z,999
2022-10-01T17:36:29.200Z,999.1
2022-10-01T17:39:29.231Z,999.2
2022-10-01T17:42:29.246Z,999.1
2022-10-01T17:45:29.304Z,999.2
2022-10-01T17:48:29.301Z,999.3
2022-10-01T17:51:29.297Z,999.2
2022-10-01T17:54:29.479Z,999.3
2022-10-01T17:57:29.341Z,999.3
2022-10-01T18:00:29.352Z,999.3
2022-10-01T18:03:29.373Z,999.4
2022-10-01T18:06:29.408Z,999.4
2022-10-01T18:09:29.422Z,999.5
2022-10-01T18:12:29.445Z,999.6
2022-10-01T18:15:29.476Z,999.6
2022-10-01T18:21:29.529Z,999.9
2022-10-01T18:24:29.586Z,999.9
2022-10-01T18:27:29.592Z,999.9
2022-10-01T18:30:29.617Z,999.9
2022-10-01T18:33:29.631Z,1000
2022-10-01T18:36:29.665Z,1000
2022-10-01T18:39:29.686Z,1000
2022-10-01T18:42:29.731Z,1000.1
2022-10-01T18:45:29.772Z,1000.1
2022-10-01T18:48:29.747Z,1000.2
2022-10-01T18:51:29.774Z,1000.2
2022-10-01T18:54:29.800Z,1000.2
2022-10-01T18:57:29.809Z,1000.2
2022-10-01T19:00:29.908Z,1000.4
2022-10-01T19:03:29.855Z,1000.4
2022-10-01T19:06:29.882Z,1000.5
2022-10-01T19:09:29.908Z,1000.5
2022-10-01T19:12:29.939Z,1000.6
2022-10-01T19:15:29.968Z,1000.6
2022-10-01T19:18:30.003Z,1000.6
2022-10-01T19:21:30.003Z,1000.6
2022-10-01T19:24:30.027Z,1000.7
2022-10-01T19:27:30.043Z,1000.7
2022-10-01T19:30:30.055Z,1000.8
2022-10-01T19:33:30.080Z,1000.8
2022-10-01T19:36:33.709Z,1000.8
2022-10-01T19:39:30.107Z,1000.9
2022-10-01T19:42:30.118Z,1001
2022-10-01T19:45:30.141Z,1001
2022-10-01T19:48:30.165Z,1001.1
2022-10-01T19:51:30.171Z,1001.1
2022-10-01T19:54:30.270Z,1001
2022-10-01T19:57:30.213Z,1001.2
2022-10-01T20:00:30.219Z,1001.2
2022-10-01T20:03:30.239Z,1001.3
2022-10-01T20:06:30.252Z,1001.4
2022-10-01T20:09:30.272Z,1001.4
2022-10-01T20:12:30.304Z,1001.5
2022-10-01T20:15:30.289Z,1001.5
2022-10-01T20:18:30.303Z,1001.6
2022-10-01T20:21:34.801Z,1001.7
2022-10-01T20:24:30.322Z,1001.7
2022-10-01T20:27:30.343Z,1001.8
2022-10-01T20:30:30.373Z,1001.8
2022-10-01T20:33:30.364Z,1001.8
2022-10-01T20:36:34.088Z,1001.8
2022-10-01T20:39:30.400Z,1001.8
2022-10-01T20:42:30.412Z,1001.9
2022-10-01T20:45:30.514Z,1002
2022-10-01T20:48:30.463Z,1002.1
2022-10-01T20:51:30.459Z,1002
2022-10-01T20:54:30.454Z,1002
2022-10-01T20:57:30.470Z,1002.2
2022-10-01T21:00:30.489Z,1002.1
2022-10-01T21:03:30.509Z,1002.1
2022-10-01T21:06:30.552Z,1002.3
2022-10-01T21:09:30.539Z,1002.2
2022-10-01T21:12:30.558Z,1002.3
2022-10-01T21:15:30.575Z,1002.3
2022-10-01T21:18:30.590Z,1002.4
2022-10-01T21:21:30.607Z,1002.4
2022-10-01T21:24:30.663Z,1002.4
2022-10-01T21:27:30.644Z,1002.6
2022-10-01T21:30:30.659Z,1002.6
2022-10-01T21:33:30.674Z,1002.7
2022-10-01T21:36:30.687Z,1002.7
2022-10-01T21:39:30.699Z,1002.7
2022-10-01T21:42:30.732Z,1002.8
2022-10-01T21:45:30.765Z,1002.8
2022-10-01T21:48:30.735Z,1002.8
2022-10-01T21:51:30.758Z,1002.8
2022-10-01T21:54:30.778Z,1002.7
2022-10-01T21:57:30.799Z,1002.9
2022-10-01T22:00:30.858Z,1002.9
2022-10-01T22:03:30.836Z,1002.9
2022-10-01T22:06:30.846Z,1003
2022-10-01T22:09:30.866Z,1003
2022-10-01T22:12:30.881Z,1003
2022-10-01T22:15:30.895Z,1003.1
2022-10-01T22:18:30.927Z,1003.1
2022-10-01T22:21:30.907Z,1003.1
2022-10-01T22:24:30.920Z,1003.1
2022-10-01T22:27:30.943Z,1003.2
2022-10-01T22:30:30.957Z,1003.2
2022-10-01T22:33:30.971Z,1003.3
2022-10-01T22:36:31.009Z,1003.3
2022-10-01T22:39:31.006Z,1003.4
2022-10-01T22:42:31.028Z,1003.3
2022-10-01T22:45:31.077Z,1003.4
2022-10-01T22:48:31.063Z,1003.4
2022-10-01T22:51:31.084Z,1003.5
2022-10-01T22:54:31.136Z,1003.5
2022-10-01T22:57:31.137Z,1003.5
2022-10-01T23:00:31.287Z,1003.4
2022-10-01T23:03:31.169Z,1003.6
2022-10-01T23:06:31.185Z,1003.7
2022-10-01T23:09:31.202Z,1003.7
2022-10-01T23:12:31.238Z,1003.7
2022-10-01T23:15:31.229Z,1003.7
2022-10-01T23:18:31.241Z,1003.6
2022-10-01T23:21:31.256Z,1003.7
2022-10-01T23:24:31.278Z,1003.8
2022-10-01T23:27:31.297Z,1003.7
2022-10-01T23:30:31.338Z,1003.7
2022-10-01T23:33:31.334Z,1003.8
2022-10-01T23:36:31.358Z,1003.8
2022-10-01T23:39:31.380Z,1003.7
2022-10-01T23:42:31.397Z,1003.7
2022-10-01T23:45:31.478Z,1003.7
2022-10-01T23:48:31.465Z,1003.8
2022-10-01T23:51:31.466Z,1003.7
2022-10-01T23:54:31.480Z,1003.8
2022-10-01T23:57:31.499Z,1003.8
